Portada
METAR-TAF:

METAR-TAF

Aeroports :

Islamabad, Pakistan

latitud: 33-32-57N, longitud: 072-49-32E, altitud: 537 m

Observació

L'informe es va fer fa 37 minuts, a les 04:55 UTC
Vent 4 kt del Nord-Est
Temperatura 24°C
Humitat 44%
Pressió 1018 hPa
Visibilitat: 5000 m
calitja

METAR: OPIS 210455Z 05004KT 5000 HZ NSC 24/11 Q1018 RH45

Hora: 10:32 (05:32 UTC)

Pronòstic

L'informe es va fer fa 8 hores i 32 minuts, a les 21:00 UTC
Pronòstic vàlid del 21 a les 00 UTC al 22 a les 06 UTC
Vent 4 kt del Nord-Oest
Visibilitat: 5000 m
calitja
Temporalment
l' 21 a les 06 UTC al 21 a les 09 UTC
Vent 10 kt del Nord-Oest amb ràfegues de 20 kt
Temporalment
l' 22 a les 00 UTC al 22 a les 03 UTC
Vent 2 kt del Nord
Visibilitat: 2000 m
boirina

TAF: OPIS 202100Z 2100/2206 31004KT 5000 HZ NSC TEMPO 2106/2109 31010G20KT TEMPO 2200/2203 36002KT 2000 BR

Observacions i pronòstics meteorològics de més de 4000 aeroports (METAR i TAF).

Les estacions disponibles són els punts grocs i vermells al mapa.

Posi el ratolí al punt desitjat per veure el nom de l'estació.

Feu clic per veure les observacions i els pronòstics meteorològics.

Per canviar el mapa: feu clic els botons verds amb una creu de color negre per apropar; al botó verd amb un guió per allunyar la imatge; o en les fletxes verdes per a mapes adjacents.


METAR-TAF: